Airways and Terminal Forecast

Significant Meteorological Information

Terminal Aerodrome Forecast

TAF RPLL

 

111100Z 1112/1218 14008KT 9999 FEW025 TX33/1206Z TN26/1121Z TEMPO 1112/1118 11012KT TEMPO 1118/1124 09006KT FEW025 SCT100=

TAF RPVM

111100Z 1112/1218 04007KT 9999 FEW020 BKN300 TEMPO 1112/1118 05010KT FEW018CB BKN100 TEMPO 1118/1124 36008KT FEW020 BKN100=

TAF RPLC

111100Z 1112/1218 05008KT 9999 FEW020 BKN300 TX35/1206Z TN25/1121Z TEMPO 1112/1118 25010KT SCT020 BKN300=

TAF RPLB

111100Z 1112/1212 09008KT 9999 FEW020 TX35/1206Z TN23/1121Z TEMPO 1112/1118 08010KT SCT020=

TAF RPLI

111100Z 1112/1212 07010KT 9999 FEW018 TEMPO 1112/1118 02007KT TEMPO 1118/1124 13005KT=

TAF RPVP

111100Z 1112/1212 07007KT 9999 FEW019 SCT250 TEMPO 1112/1118 VCSH FEW017CB BKN080=

TAF RPVD

111100Z 1112/1212 02009KT  9999 FEW015 SCT220 TEMPO 1112/1118 34005KT VCSH FEW014CB SCT015 BKN070=

TAF RPMR

111100Z 1112/1212 35007KT 9999 FEW018 BKN080 TEMPO 1112/1118 -SHRA SCT018CB OVC080=

TAF RPMD

111100Z 1112/1212 35008KT 9999 FEW016 SCT090 BKN290 TEMPO 1112/1118 -SHRA SCT015CB BKN090 BKN290=

TAF RPMZ

111100Z 1112/1212 23006KT 9999 FEW017 BKN090 TEMPO 1112/1118 33004KT -SHRA FEW016CB FEW017 SCT090=

 

RPLL FORECAST TAKE-OFF CONDITION

TIME

(UTC)

WIND

(dddffKT)

TEMP

(°C)

QNH

(hPa)

TIME

(UTC)

WIND

(dddffKT)

TEMP

(°C)

QNH

(hPa)

1200

11009KT

30.0

1012.0

1600

12006KT

28.0

1013.0

1300

10011KT

29.0

1012.0

1700

10008KT

28.0

1012.0

1400

12010KT

29.0

1013.0

1800

09005KT

27.0

1012.0

1500

11012KT

28.0

1013.0

1900

07004KT

27.0

1011.0

 

ISSUED AT NAIA AMSS-WD/PAGASA-DOST FOR 1100UTC 11 APRIL 2021

PREPARED BY:              LLAB

CHECKED BY:                CHH